sensor_id;sensor_type;location;lat;lon;timestamp;temperature;humidity
72126;SHT31;59999;51.676;22.650;2023-09-30T00:00:52;14.06;83.15
72126;SHT31;59999;51.676;22.650;2023-09-30T00:03:30;13.96;83.06
72126;SHT31;59999;51.676;22.650;2023-09-30T00:05:56;13.87;83.38
72126;SHT31;59999;51.676;22.650;2023-09-30T00:08:22;13.79;83.50
72126;SHT31;59999;51.676;22.650;2023-09-30T00:10:48;13.73;83.96
72126;SHT31;59999;51.676;22.650;2023-09-30T00:13:13;13.69;84.30
72126;SHT31;59999;51.676;22.650;2023-09-30T00:15:39;13.68;84.51
72126;SHT31;59999;51.676;22.650;2023-09-30T00:18:06;13.66;84.47
72126;SHT31;59999;51.676;22.650;2023-09-30T00:20:32;13.65;84.75
72126;SHT31;59999;51.676;22.650;2023-09-30T00:22:57;13.57;83.77
72126;SHT31;59999;51.676;22.650;2023-09-30T00:25:23;13.47;84.04
72126;SHT31;59999;51.676;22.650;2023-09-30T00:27:49;13.38;84.26
72126;SHT31;59999;51.676;22.650;2023-09-30T00:30:15;13.25;84.69
72126;SHT31;59999;51.676;22.650;2023-09-30T00:32:41;13.21;84.77
72126;SHT31;59999;51.676;22.650;2023-09-30T00:35:07;13.14;85.11
72126;SHT31;59999;51.676;22.650;2023-09-30T00:37:39;13.08;85.28
72126;SHT31;59999;51.676;22.650;2023-09-30T00:40:05;13.07;85.89
72126;SHT31;59999;51.676;22.650;2023-09-30T00:42:31;13.06;86.08
72126;SHT31;59999;51.676;22.650;2023-09-30T00:44:57;13.08;86.05
72126;SHT31;59999;51.676;22.650;2023-09-30T00:47:23;13.06;85.65
72126;SHT31;59999;51.676;22.650;2023-09-30T00:49:51;13.01;86.38
72126;SHT31;59999;51.676;22.650;2023-09-30T00:52:18;13.04;86.24
72126;SHT31;59999;51.676;22.650;2023-09-30T00:54:44;13.01;85.91
72126;SHT31;59999;51.676;22.650;2023-09-30T00:57:11;12.89;85.49
72126;SHT31;59999;51.676;22.650;2023-09-30T00:59:38;12.90;86.55
72126;SHT31;59999;51.676;22.650;2023-09-30T01:02:05;12.90;86.33
72126;SHT31;59999;51.676;22.650;2023-09-30T01:04:32;12.89;86.47
72126;SHT31;59999;51.676;22.650;2023-09-30T01:06:58;12.87;86.35
72126;SHT31;59999;51.676;22.650;2023-09-30T01:09:24;12.84;86.21
72126;SHT31;59999;51.676;22.650;2023-09-30T01:11:50;12.81;86.82
72126;SHT31;59999;51.676;22.650;2023-09-30T01:14:29;12.75;86.94
72126;SHT31;59999;51.676;22.650;2023-09-30T01:16:55;12.72;87.48
72126;SHT31;59999;51.676;22.650;2023-09-30T01:19:22;12.73;87.31
72126;SHT31;59999;51.676;22.650;2023-09-30T01:21:59;12.73;87.07
72126;SHT31;59999;51.676;22.650;2023-09-30T01:24:26;12.70;86.98
72126;SHT31;59999;51.676;22.650;2023-09-30T01:26:52;12.70;87.30
72126;SHT31;59999;51.676;22.650;2023-09-30T01:29:19;12.67;86.99
72126;SHT31;59999;51.676;22.650;2023-09-30T01:31:44;12.63;86.97
72126;SHT31;59999;51.676;22.650;2023-09-30T01:34:14;12.56;87.50
72126;SHT31;59999;51.676;22.650;2023-09-30T01:36:44;12.55;87.51
72126;SHT31;59999;51.676;22.650;2023-09-30T01:39:11;12.56;87.56
72126;SHT31;59999;51.676;22.650;2023-09-30T01:41:40;12.50;87.64
72126;SHT31;59999;51.676;22.650;2023-09-30T01:44:06;12.46;87.65
72126;SHT31;59999;51.676;22.650;2023-09-30T01:46:33;12.42;87.88
72126;SHT31;59999;51.676;22.650;2023-09-30T01:48:59;12.41;88.09
72126;SHT31;59999;51.676;22.650;2023-09-30T01:51:25;12.43;88.13
72126;SHT31;59999;51.676;22.650;2023-09-30T01:53:50;12.45;88.58
72126;SHT31;59999;51.676;22.650;2023-09-30T01:56:16;12.48;88.69
72126;SHT31;59999;51.676;22.650;2023-09-30T01:58:42;12.50;88.67
72126;SHT31;59999;51.676;22.650;2023-09-30T02:01:09;12.52;88.65
72126;SHT31;59999;51.676;22.650;2023-09-30T02:03:34;12.53;88.42
72126;SHT31;59999;51.676;22.650;2023-09-30T02:06:00;12.56;89.03
72126;SHT31;59999;51.676;22.650;2023-09-30T02:08:26;12.60;88.61
72126;SHT31;59999;51.676;22.650;2023-09-30T02:10:52;12.64;88.33
72126;SHT31;59999;51.676;22.650;2023-09-30T02:13:18;12.64;88.08
72126;SHT31;59999;51.676;22.650;2023-09-30T02:15:43;12.60;88.08
72126;SHT31;59999;51.676;22.650;2023-09-30T02:18:09;12.62;88.03
72126;SHT31;59999;51.676;22.650;2023-09-30T02:20:36;12.56;87.66
72126;SHT31;59999;51.676;22.650;2023-09-30T02:23:09;12.49;87.93
72126;SHT31;59999;51.676;22.650;2023-09-30T02:25:39;12.45;88.33
72126;SHT31;59999;51.676;22.650;2023-09-30T02:28:06;12.46;88.28
72126;SHT31;59999;51.676;22.650;2023-09-30T02:30:32;12.45;88.40
72126;SHT31;59999;51.676;22.650;2023-09-30T02:32:58;12.45;88.15
72126;SHT31;59999;51.676;22.650;2023-09-30T02:35:23;12.39;88.13
72126;SHT31;59999;51.676;22.650;2023-09-30T02:37:50;12.39;88.23
72126;SHT31;59999;51.676;22.650;2023-09-30T02:40:17;12.41;88.39
72126;SHT31;59999;51.676;22.650;2023-09-30T02:42:43;12.41;88.19
72126;SHT31;59999;51.676;22.650;2023-09-30T02:45:09;12.41;88.36
72126;SHT31;59999;51.676;22.650;2023-09-30T02:47:36;12.36;88.05
72126;SHT31;59999;51.676;22.650;2023-09-30T02:50:05;12.33;87.99
72126;SHT31;59999;51.676;22.650;2023-09-30T02:52:31;12.28;88.24
72126;SHT31;59999;51.676;22.650;2023-09-30T02:54:58;12.21;88.38
72126;SHT31;59999;51.676;22.650;2023-09-30T02:57:24;12.14;88.52
72126;SHT31;59999;51.676;22.650;2023-09-30T02:59:50;12.10;88.74
72126;SHT31;59999;51.676;22.650;2023-09-30T03:02:17;12.06;89.12
72126;SHT31;59999;51.676;22.650;2023-09-30T03:04:44;12.06;89.14
72126;SHT31;59999;51.676;22.650;2023-09-30T03:07:10;12.04;89.31
72126;SHT31;59999;51.676;22.650;2023-09-30T03:09:36;12.04;89.51
72126;SHT31;59999;51.676;22.650;2023-09-30T03:12:02;12.06;89.56
72126;SHT31;59999;51.676;22.650;2023-09-30T03:14:28;12.05;89.66
72126;SHT31;59999;51.676;22.650;2023-09-30T03:16:59;12.10;89.87
72126;SHT31;59999;51.676;22.650;2023-09-30T03:19:25;12.12;89.83
72126;SHT31;59999;51.676;22.650;2023-09-30T03:21:51;12.14;89.51
72126;SHT31;59999;51.676;22.650;2023-09-30T03:24:17;12.15;89.48
72126;SHT31;59999;51.676;22.650;2023-09-30T03:26:43;12.12;89.37
72126;SHT31;59999;51.676;22.650;2023-09-30T03:29:09;12.11;89.46
72126;SHT31;59999;51.676;22.650;2023-09-30T03:31:36;12.08;89.37
72126;SHT31;59999;51.676;22.650;2023-09-30T03:34:05;12.08;89.48
72126;SHT31;59999;51.676;22.650;2023-09-30T03:36:31;12.08;89.63
72126;SHT31;59999;51.676;22.650;2023-09-30T03:38:57;12.08;89.73
72126;SHT31;59999;51.676;22.650;2023-09-30T03:41:26;12.10;89.84
72126;SHT31;59999;51.676;22.650;2023-09-30T03:43:51;12.11;89.96
72126;SHT31;59999;51.676;22.650;2023-09-30T03:46:18;12.12;90.07
72126;SHT31;59999;51.676;22.650;2023-09-30T03:48:43;12.15;89.78
72126;SHT31;59999;51.676;22.650;2023-09-30T03:51:14;12.14;89.87
72126;SHT31;59999;51.676;22.650;2023-09-30T03:53:43;12.14;89.75
72126;SHT31;59999;51.676;22.650;2023-09-30T03:56:10;12.12;89.76
72126;SHT31;59999;51.676;22.650;2023-09-30T03:58:43;12.15;89.74
72126;SHT31;59999;51.676;22.650;2023-09-30T04:01:10;12.17;89.80
72126;SHT31;59999;51.676;22.650;2023-09-30T04:03:39;12.14;89.80
72126;SHT31;59999;51.676;22.650;2023-09-30T04:06:05;12.18;89.79
72126;SHT31;59999;51.676;22.650;2023-09-30T04:08:34;12.20;89.73
72126;SHT31;59999;51.676;22.650;2023-09-30T04:11:00;12.18;89.77
72126;SHT31;59999;51.676;22.650;2023-09-30T04:13:26;12.20;89.83
72126;SHT31;59999;51.676;22.650;2023-09-30T04:15:53;12.21;89.87
72126;SHT31;59999;51.676;22.650;2023-09-30T04:18:18;12.22;89.84
72126;SHT31;59999;51.676;22.650;2023-09-30T04:20:48;12.25;89.79
72126;SHT31;59999;51.676;22.650;2023-09-30T04:23:14;12.26;89.82
72126;SHT31;59999;51.676;22.650;2023-09-30T04:25:40;12.31;89.77
72126;SHT31;59999;51.676;22.650;2023-09-30T04:28:08;12.32;89.80
72126;SHT31;59999;51.676;22.650;2023-09-30T04:30:34;12.36;89.79
72126;SHT31;59999;51.676;22.650;2023-09-30T04:33:00;12.36;89.53
72126;SHT31;59999;51.676;22.650;2023-09-30T04:35:26;12.36;89.63
72126;SHT31;59999;51.676;22.650;2023-09-30T04:37:52;12.39;89.38
72126;SHT31;59999;51.676;22.650;2023-09-30T04:40:18;12.45;89.34
72126;SHT31;59999;51.676;22.650;2023-09-30T04:53:28;12.63;89.03
72126;SHT31;59999;51.676;22.650;2023-09-30T04:55:55;12.67;89.03
72126;SHT31;59999;51.676;22.650;2023-09-30T04:58:20;12.75;88.90
72126;SHT31;59999;51.676;22.650;2023-09-30T05:00:46;12.81;88.80
72126;SHT31;59999;51.676;22.650;2023-09-30T05:03:12;12.87;88.73
72126;SHT31;59999;51.676;22.650;2023-09-30T05:05:38;12.94;88.66
72126;SHT31;59999;51.676;22.650;2023-09-30T05:08:03;13.01;88.49
72126;SHT31;59999;51.676;22.650;2023-09-30T05:10:29;13.11;88.37
72126;SHT31;59999;51.676;22.650;2023-09-30T05:12:55;13.17;88.24
72126;SHT31;59999;51.676;22.650;2023-09-30T05:15:21;13.25;87.99
72126;SHT31;59999;51.676;22.650;2023-09-30T05:17:48;13.34;87.82
72126;SHT31;59999;51.676;22.650;2023-09-30T05:20:15;13.41;87.41
72126;SHT31;59999;51.676;22.650;2023-09-30T05:22:43;13.51;87.25
72126;SHT31;59999;51.676;22.650;2023-09-30T05:25:13;13.58;87.05
72126;SHT31;59999;51.676;22.650;2023-09-30T05:27:41;13.69;87.10
72126;SHT31;59999;51.676;22.650;2023-09-30T05:30:08;13.76;86.79
72126;SHT31;59999;51.676;22.650;2023-09-30T05:32:35;13.86;86.59
72126;SHT31;59999;51.676;22.650;2023-09-30T05:35:05;13.95;86.41
72126;SHT31;59999;51.676;22.650;2023-09-30T05:37:31;14.09;86.24
72126;SHT31;59999;51.676;22.650;2023-09-30T05:39:57;14.20;86.09
72126;SHT31;59999;51.676;22.650;2023-09-30T05:42:23;14.40;85.54
72126;SHT31;59999;51.676;22.650;2023-09-30T05:44:49;14.58;84.96
72126;SHT31;59999;51.676;22.650;2023-09-30T05:47:14;14.74;84.23
72126;SHT31;59999;51.676;22.650;2023-09-30T05:49:41;14.89;83.89
72126;SHT31;59999;51.676;22.650;2023-09-30T05:52:07;15.05;83.55
72126;SHT31;59999;51.676;22.650;2023-09-30T05:54:33;15.16;83.43
72126;SHT31;59999;51.676;22.650;2023-09-30T05:56:58;15.30;82.57
72126;SHT31;59999;51.676;22.650;2023-09-30T05:59:27;15.39;82.02
72126;SHT31;59999;51.676;22.650;2023-09-30T06:01:53;15.50;81.57
72126;SHT31;59999;51.676;22.650;2023-09-30T06:04:19;15.57;80.77
72126;SHT31;59999;51.676;22.650;2023-09-30T06:06:46;15.62;80.19
72126;SHT31;59999;51.676;22.650;2023-09-30T06:09:12;15.70;79.62
72126;SHT31;59999;51.676;22.650;2023-09-30T06:11:37;15.71;79.46
72126;SHT31;59999;51.676;22.650;2023-09-30T06:14:03;15.77;79.96
72126;SHT31;59999;51.676;22.650;2023-09-30T06:16:32;15.78;79.98
72126;SHT31;59999;51.676;22.650;2023-09-30T06:18:58;15.81;80.61
72126;SHT31;59999;51.676;22.650;2023-09-30T06:21:25;15.84;81.02
72126;SHT31;59999;51.676;22.650;2023-09-30T06:23:55;15.84;80.45
72126;SHT31;59999;51.676;22.650;2023-09-30T06:26:21;15.90;80.21
72126;SHT31;59999;51.676;22.650;2023-09-30T06:28:47;15.92;80.04
72126;SHT31;59999;51.676;22.650;2023-09-30T06:31:14;15.95;79.87
72126;SHT31;59999;51.676;22.650;2023-09-30T06:33:40;15.99;79.36
72126;SHT31;59999;51.676;22.650;2023-09-30T06:36:15;16.05;79.39
72126;SHT31;59999;51.676;22.650;2023-09-30T06:38:41;16.13;79.42
72126;SHT31;59999;51.676;22.650;2023-09-30T06:41:08;16.18;79.36
72126;SHT31;59999;51.676;22.650;2023-09-30T06:43:34;16.25;78.98
72126;SHT31;59999;51.676;22.650;2023-09-30T06:46:07;16.30;78.50
72126;SHT31;59999;51.676;22.650;2023-09-30T06:48:35;16.39;79.03
72126;SHT31;59999;51.676;22.650;2023-09-30T06:51:01;16.46;78.50
72126;SHT31;59999;51.676;22.650;2023-09-30T06:53:27;16.53;77.38
72126;SHT31;59999;51.676;22.650;2023-09-30T06:55:53;16.61;78.00
72126;SHT31;59999;51.676;22.650;2023-09-30T06:58:19;16.70;77.81
72126;SHT31;59999;51.676;22.650;2023-09-30T07:00:51;16.78;77.01
72126;SHT31;59999;51.676;22.650;2023-09-30T07:03:19;16.85;76.11
72126;SHT31;59999;51.676;22.650;2023-09-30T07:05:45;16.94;76.05
72126;SHT31;59999;51.676;22.650;2023-09-30T07:08:11;17.00;75.61
72126;SHT31;59999;51.676;22.650;2023-09-30T07:10:37;17.04;75.63
72126;SHT31;59999;51.676;22.650;2023-09-30T07:13:04;17.11;76.02
72126;SHT31;59999;51.676;22.650;2023-09-30T07:15:30;17.15;75.80
72126;SHT31;59999;51.676;22.650;2023-09-30T07:17:55;17.17;75.23
72126;SHT31;59999;51.676;22.650;2023-09-30T07:20:21;17.19;75.41
72126;SHT31;59999;51.676;22.650;2023-09-30T07:22:48;17.17;74.66
72126;SHT31;59999;51.676;22.650;2023-09-30T07:25:14;17.18;74.50
72126;SHT31;59999;51.676;22.650;2023-09-30T07:27:44;17.18;74.47
72126;SHT31;59999;51.676;22.650;2023-09-30T07:30:13;17.21;74.59
72126;SHT31;59999;51.676;22.650;2023-09-30T07:32:43;17.25;74.85
72126;SHT31;59999;51.676;22.650;2023-09-30T07:35:10;17.25;74.49
72126;SHT31;59999;51.676;22.650;2023-09-30T07:37:36;17.22;74.57
72126;SHT31;59999;51.676;22.650;2023-09-30T07:40:02;17.24;74.58
72126;SHT31;59999;51.676;22.650;2023-09-30T07:42:28;17.24;75.33
72126;SHT31;59999;51.676;22.650;2023-09-30T07:44:54;17.12;76.23
72126;SHT31;59999;51.676;22.650;2023-09-30T07:47:20;17.04;76.84
72126;SHT31;59999;51.676;22.650;2023-09-30T07:49:45;16.97;76.97
72126;SHT31;59999;51.676;22.650;2023-09-30T07:52:12;16.89;76.95
72126;SHT31;59999;51.676;22.650;2023-09-30T07:54:37;16.87;77.90
72126;SHT31;59999;51.676;22.650;2023-09-30T07:57:03;16.78;78.09
72126;SHT31;59999;51.676;22.650;2023-09-30T07:59:29;16.80;78.11
72126;SHT31;59999;51.676;22.650;2023-09-30T08:01:55;16.76;78.23
72126;SHT31;59999;51.676;22.650;2023-09-30T08:04:22;16.73;78.62
72126;SHT31;59999;51.676;22.650;2023-09-30T08:06:49;16.68;77.90
72126;SHT31;59999;51.676;22.650;2023-09-30T08:09:14;16.66;78.29
72126;SHT31;59999;51.676;22.650;2023-09-30T08:11:41;16.67;77.97
72126;SHT31;59999;51.676;22.650;2023-09-30T08:14:06;16.68;78.37
72126;SHT31;59999;51.676;22.650;2023-09-30T08:16:35;16.71;78.14
72126;SHT31;59999;51.676;22.650;2023-09-30T08:19:02;16.73;77.83
72126;SHT31;59999;51.676;22.650;2023-09-30T08:21:29;16.78;78.02
72126;SHT31;59999;51.676;22.650;2023-09-30T08:23:56;16.81;78.25
72126;SHT31;59999;51.676;22.650;2023-09-30T08:26:22;16.87;78.75
72126;SHT31;59999;51.676;22.650;2023-09-30T08:28:48;16.92;78.59
72126;SHT31;59999;51.676;22.650;2023-09-30T08:31:14;16.94;78.07
72126;SHT31;59999;51.676;22.650;2023-09-30T08:33:40;16.97;78.99
72126;SHT31;59999;51.676;22.650;2023-09-30T08:36:09;16.95;79.04
72126;SHT31;59999;51.676;22.650;2023-09-30T08:38:36;16.98;78.96
72126;SHT31;59999;51.676;22.650;2023-09-30T08:41:02;17.01;79.16
72126;SHT31;59999;51.676;22.650;2023-09-30T08:43:28;17.07;78.88
72126;SHT31;59999;51.676;22.650;2023-09-30T08:45:56;17.08;78.83
72126;SHT31;59999;51.676;22.650;2023-09-30T08:48:28;17.14;79.12
72126;SHT31;59999;51.676;22.650;2023-09-30T08:50:56;17.22;79.00
72126;SHT31;59999;51.676;22.650;2023-09-30T08:53:23;17.32;79.17
72126;SHT31;59999;51.676;22.650;2023-09-30T08:55:54;17.40;79.01
72126;SHT31;59999;51.676;22.650;2023-09-30T08:58:23;17.50;77.34
72126;SHT31;59999;51.676;22.650;2023-09-30T09:00:50;17.53;78.53
72126;SHT31;59999;51.676;22.650;2023-09-30T09:03:17;17.56;79.33
72126;SHT31;59999;51.676;22.650;2023-09-30T09:05:43;17.57;77.47
72126;SHT31;59999;51.676;22.650;2023-09-30T09:08:09;17.57;78.29
72126;SHT31;59999;51.676;22.650;2023-09-30T09:10:35;17.57;77.56
72126;SHT31;59999;51.676;22.650;2023-09-30T09:13:00;17.62;77.69
72126;SHT31;59999;51.676;22.650;2023-09-30T09:15:27;17.61;77.27
72126;SHT31;59999;51.676;22.650;2023-09-30T09:17:57;17.62;77.51
72126;SHT31;59999;51.676;22.650;2023-09-30T09:20:24;17.67;77.09
72126;SHT31;59999;51.676;22.650;2023-09-30T09:22:55;17.67;77.98
72126;SHT31;59999;51.676;22.650;2023-09-30T09:25:22;17.66;77.16
72126;SHT31;59999;51.676;22.650;2023-09-30T09:27:49;17.55;78.27
72126;SHT31;59999;51.676;22.650;2023-09-30T09:30:23;17.49;78.47
72126;SHT31;59999;51.676;22.650;2023-09-30T09:33:05;17.46;79.39
72126;SHT31;59999;51.676;22.650;2023-09-30T09:35:35;17.45;79.58
72126;SHT31;59999;51.676;22.650;2023-09-30T09:38:05;17.43;80.21
72126;SHT31;59999;51.676;22.650;2023-09-30T09:40:33;17.38;80.40
72126;SHT31;59999;51.676;22.650;2023-09-30T09:43:00;17.38;80.97
72126;SHT31;59999;51.676;22.650;2023-09-30T09:45:28;17.29;81.23
72126;SHT31;59999;51.676;22.650;2023-09-30T09:47:54;17.29;81.60
72126;SHT31;59999;51.676;22.650;2023-09-30T09:50:22;17.28;81.32
72126;SHT31;59999;51.676;22.650;2023-09-30T09:52:50;17.25;81.11
72126;SHT31;59999;51.676;22.650;2023-09-30T09:55:20;17.21;81.87
72126;SHT31;59999;51.676;22.650;2023-09-30T09:57:48;17.21;82.45
72126;SHT31;59999;51.676;22.650;2023-09-30T10:00:20;17.26;83.00
72126;SHT31;59999;51.676;22.650;2023-09-30T10:02:46;17.28;83.24
72126;SHT31;59999;51.676;22.650;2023-09-30T10:05:14;17.29;83.17
72126;SHT31;59999;51.676;22.650;2023-09-30T10:08:02;17.32;83.14
72126;SHT31;59999;51.676;22.650;2023-09-30T10:10:29;17.32;82.72
72126;SHT31;59999;51.676;22.650;2023-09-30T10:12:55;17.28;82.84
72126;SHT31;59999;51.676;22.650;2023-09-30T10:18:06;17.25;83.11
72126;SHT31;59999;51.676;22.650;2023-09-30T10:20:34;17.24;83.18
72126;SHT31;59999;51.676;22.650;2023-09-30T10:23:26;17.22;83.23
72126;SHT31;59999;51.676;22.650;2023-09-30T10:31:20;17.18;84.13
72126;SHT31;59999;51.676;22.650;2023-09-30T10:36:35;17.21;84.29
72126;SHT31;59999;51.676;22.650;2023-09-30T10:39:01;17.24;84.44
72126;SHT31;59999;51.676;22.650;2023-09-30T10:47:00;17.28;84.67
72126;SHT31;59999;51.676;22.650;2023-09-30T10:49:42;17.25;84.79
72126;SHT31;59999;51.676;22.650;2023-09-30T10:52:08;17.22;84.28
72126;SHT31;59999;51.676;22.650;2023-09-30T10:54:35;17.17;84.75
72126;SHT31;59999;51.676;22.650;2023-09-30T10:57:01;17.12;84.65
72126;SHT31;59999;51.676;22.650;2023-09-30T10:59:28;17.10;85.10
72126;SHT31;59999;51.676;22.650;2023-09-30T11:01:58;17.11;85.13
72126;SHT31;59999;51.676;22.650;2023-09-30T11:04:24;17.10;85.43
72126;SHT31;59999;51.676;22.650;2023-09-30T11:06:52;17.10;85.53
72126;SHT31;59999;51.676;22.650;2023-09-30T11:09:19;17.14;85.79
72126;SHT31;59999;51.676;22.650;2023-09-30T11:11:50;17.15;85.90
72126;SHT31;59999;51.676;22.650;2023-09-30T11:14:23;17.19;85.70
72126;SHT31;59999;51.676;22.650;2023-09-30T11:16:51;17.18;85.92
72126;SHT31;59999;51.676;22.650;2023-09-30T11:19:17;17.21;86.30
72126;SHT31;59999;51.676;22.650;2023-09-30T11:21:48;17.21;86.26
72126;SHT31;59999;51.676;22.650;2023-09-30T11:24:14;17.25;86.33
72126;SHT31;59999;51.676;22.650;2023-09-30T11:26:40;17.32;86.70
72126;SHT31;59999;51.676;22.650;2023-09-30T11:29:13;17.36;86.24
72126;SHT31;59999;51.676;22.650;2023-09-30T11:31:40;17.42;86.31
72126;SHT31;59999;51.676;22.650;2023-09-30T11:34:06;17.52;86.47
72126;SHT31;59999;51.676;22.650;2023-09-30T11:36:38;17.56;86.49
72126;SHT31;59999;51.676;22.650;2023-09-30T11:39:05;17.63;86.33
72126;SHT31;59999;51.676;22.650;2023-09-30T11:41:40;17.67;86.04
72126;SHT31;59999;51.676;22.650;2023-09-30T11:44:11;17.74;85.63
72126;SHT31;59999;51.676;22.650;2023-09-30T11:46:49;17.73;85.40
72126;SHT31;59999;51.676;22.650;2023-09-30T11:51:49;17.65;85.86
72126;SHT31;59999;51.676;22.650;2023-09-30T11:54:16;17.62;85.73
72126;SHT31;59999;51.676;22.650;2023-09-30T11:56:42;17.57;85.65
72126;SHT31;59999;51.676;22.650;2023-09-30T11:59:07;17.57;85.59
72126;SHT31;59999;51.676;22.650;2023-09-30T12:01:39;17.50;85.90
72126;SHT31;59999;51.676;22.650;2023-09-30T12:04:05;17.42;86.13
72126;SHT31;59999;51.676;22.650;2023-09-30T12:06:32;17.42;86.20
72126;SHT31;59999;51.676;22.650;2023-09-30T12:08:59;17.32;86.59
72126;SHT31;59999;51.676;22.650;2023-09-30T12:11:25;17.31;86.74
72126;SHT31;59999;51.676;22.650;2023-09-30T12:13:51;17.24;87.01
72126;SHT31;59999;51.676;22.650;2023-09-30T12:16:17;17.22;87.27
72126;SHT31;59999;51.676;22.650;2023-09-30T12:18:45;17.22;87.39
72126;SHT31;59999;51.676;22.650;2023-09-30T12:21:11;17.17;87.75
72126;SHT31;59999;51.676;22.650;2023-09-30T12:23:39;17.15;88.12
72126;SHT31;59999;51.676;22.650;2023-09-30T12:26:05;17.14;88.41
72126;SHT31;59999;51.676;22.650;2023-09-30T12:28:32;17.12;88.75
72126;SHT31;59999;51.676;22.650;2023-09-30T12:30:59;17.12;88.90
72126;SHT31;59999;51.676;22.650;2023-09-30T12:33:28;17.05;89.31
72126;SHT31;59999;51.676;22.650;2023-09-30T12:35:54;17.07;89.61
72126;SHT31;59999;51.676;22.650;2023-09-30T12:38:19;17.05;89.93
72126;SHT31;59999;51.676;22.650;2023-09-30T12:40:45;17.05;90.12
72126;SHT31;59999;51.676;22.650;2023-09-30T12:43:11;17.07;90.31
72126;SHT31;59999;51.676;22.650;2023-09-30T12:45:37;17.10;90.44
72126;SHT31;59999;51.676;22.650;2023-09-30T12:48:06;17.11;90.54
72126;SHT31;59999;51.676;22.650;2023-09-30T12:50:31;17.14;90.61
72126;SHT31;59999;51.676;22.650;2023-09-30T12:52:57;17.12;90.67
72126;SHT31;59999;51.676;22.650;2023-09-30T12:55:24;17.17;90.66
72126;SHT31;59999;51.676;22.650;2023-09-30T12:57:52;17.21;90.64
72126;SHT31;59999;51.676;22.650;2023-09-30T13:00:19;17.21;90.63
72126;SHT31;59999;51.676;22.650;2023-09-30T13:02:45;17.24;90.67
72126;SHT31;59999;51.676;22.650;2023-09-30T13:05:12;17.24;90.69
72126;SHT31;59999;51.676;22.650;2023-09-30T13:07:37;17.24;90.69
72126;SHT31;59999;51.676;22.650;2023-09-30T13:10:03;17.25;90.52
72126;SHT31;59999;51.676;22.650;2023-09-30T13:12:31;17.24;90.58
72126;SHT31;59999;51.676;22.650;2023-09-30T13:14:59;17.28;90.49
72126;SHT31;59999;51.676;22.650;2023-09-30T13:17:25;17.29;90.46
72126;SHT31;59999;51.676;22.650;2023-09-30T13:19:51;17.32;90.52
72126;SHT31;59999;51.676;22.650;2023-09-30T13:22:17;17.34;90.51
72126;SHT31;59999;51.676;22.650;2023-09-30T13:24:44;17.36;90.40
72126;SHT31;59999;51.676;22.650;2023-09-30T13:27:09;17.38;90.22
72126;SHT31;59999;51.676;22.650;2023-09-30T13:29:35;17.34;90.20
72126;SHT31;59999;51.676;22.650;2023-09-30T13:32:01;17.35;90.09
72126;SHT31;59999;51.676;22.650;2023-09-30T13:34:27;17.31;90.08
72126;SHT31;59999;51.676;22.650;2023-09-30T13:36:54;17.34;90.04
72126;SHT31;59999;51.676;22.650;2023-09-30T13:39:21;17.32;89.84
72126;SHT31;59999;51.676;22.650;2023-09-30T13:41:47;17.31;89.77
72126;SHT31;59999;51.676;22.650;2023-09-30T13:44:13;17.26;89.69
72126;SHT31;59999;51.676;22.650;2023-09-30T13:46:39;17.21;89.85
72126;SHT31;59999;51.676;22.650;2023-09-30T13:49:05;17.19;90.05
72126;SHT31;59999;51.676;22.650;2023-09-30T13:51:30;17.17;90.26
72126;SHT31;59999;51.676;22.650;2023-09-30T13:53:56;17.08;89.21
72126;SHT31;59999;51.676;22.650;2023-09-30T13:56:22;17.03;89.00
72126;SHT31;59999;51.676;22.650;2023-09-30T13:58:48;17.03;89.01
72126;SHT31;59999;51.676;22.650;2023-09-30T14:01:17;17.00;88.89
72126;SHT31;59999;51.676;22.650;2023-09-30T14:03:46;16.94;88.64
72126;SHT31;59999;51.676;22.650;2023-09-30T14:06:13;16.91;88.78
72126;SHT31;59999;51.676;22.650;2023-09-30T14:08:39;16.85;88.80
72126;SHT31;59999;51.676;22.650;2023-09-30T14:11:08;16.78;88.47
72126;SHT31;59999;51.676;22.650;2023-09-30T14:13:34;16.63;87.43
72126;SHT31;59999;51.676;22.650;2023-09-30T14:16:01;16.55;86.09
72126;SHT31;59999;51.676;22.650;2023-09-30T14:18:27;16.40;84.92
72126;SHT31;59999;51.676;22.650;2023-09-30T14:20:52;16.34;84.17
72126;SHT31;59999;51.676;22.650;2023-09-30T14:23:18;16.34;84.87
72126;SHT31;59999;51.676;22.650;2023-09-30T14:25:44;16.33;84.90
72126;SHT31;59999;51.676;22.650;2023-09-30T14:28:10;16.28;84.52
72126;SHT31;59999;51.676;22.650;2023-09-30T14:30:36;16.26;84.85
72126;SHT31;59999;51.676;22.650;2023-09-30T14:33:02;16.29;84.62
72126;SHT31;59999;51.676;22.650;2023-09-30T14:35:28;16.28;84.88
72126;SHT31;59999;51.676;22.650;2023-09-30T14:37:54;16.26;85.00
72126;SHT31;59999;51.676;22.650;2023-09-30T14:40:22;16.25;85.34
72126;SHT31;59999;51.676;22.650;2023-09-30T14:42:48;16.19;84.82
72126;SHT31;59999;51.676;22.650;2023-09-30T14:45:14;16.18;85.06
72126;SHT31;59999;51.676;22.650;2023-09-30T14:47:40;16.12;84.24
72126;SHT31;59999;51.676;22.650;2023-09-30T14:50:07;16.12;84.26
72126;SHT31;59999;51.676;22.650;2023-09-30T14:52:33;16.06;84.27
72126;SHT31;59999;51.676;22.650;2023-09-30T14:54:59;16.05;83.83
72126;SHT31;59999;51.676;22.650;2023-09-30T14:57:25;16.02;83.77
72126;SHT31;59999;51.676;22.650;2023-09-30T14:59:51;15.99;84.07
72126;SHT31;59999;51.676;22.650;2023-09-30T15:02:17;15.94;84.28
72126;SHT31;59999;51.676;22.650;2023-09-30T15:04:43;15.90;84.47
72126;SHT31;59999;51.676;22.650;2023-09-30T15:07:08;15.88;84.40
72126;SHT31;59999;51.676;22.650;2023-09-30T15:09:34;15.87;84.68
72126;SHT31;59999;51.676;22.650;2023-09-30T15:12:00;15.84;84.91
72126;SHT31;59999;51.676;22.650;2023-09-30T15:14:26;15.82;85.18
72126;SHT31;59999;51.676;22.650;2023-09-30T15:16:52;15.81;84.78
72126;SHT31;59999;51.676;22.650;2023-09-30T15:19:17;15.81;84.95
72126;SHT31;59999;51.676;22.650;2023-09-30T15:21:43;15.75;85.40
72126;SHT31;59999;51.676;22.650;2023-09-30T15:24:09;15.71;85.63
72126;SHT31;59999;51.676;22.650;2023-09-30T15:26:36;15.65;85.89
72126;SHT31;59999;51.676;22.650;2023-09-30T15:29:02;15.64;86.34
72126;SHT31;59999;51.676;22.650;2023-09-30T15:31:30;15.62;86.71
72126;SHT31;59999;51.676;22.650;2023-09-30T15:33:58;15.60;87.18
72126;SHT31;59999;51.676;22.650;2023-09-30T15:36:24;15.55;87.69
72126;SHT31;59999;51.676;22.650;2023-09-30T15:38:51;15.53;88.08
72126;SHT31;59999;51.676;22.650;2023-09-30T15:41:22;15.44;89.02
72126;SHT31;59999;51.676;22.650;2023-09-30T15:43:51;15.37;89.28